Springfield, Wisconsin
Current Conditions -  °F | °C
As of 10:15 AM on Thursday 29 Jan 2015 (Local Time) from KBUU Reporting Station
Overcast Overcast  
Wind Chill: 18°   Ceiling: 1600
Heat Index: 30°   Visibility: 7mi
Dew Point: 25°   Wind: 20mph
Humidity: 80%   Direction: 330°NNW
Pressure: 29.9"   Gusts: 25mph
Location:  42.64°N, 88.41°W
Report Text: KBUU 291615Z AUTO 33017G22KT 7SM OVC016 M01/M04 A2990 RMK AO2 T10091040
Loading
Personal Weather Stations






























Interactive Weather Map New forecast layout! Learn more

10-Day Weather Forecast

Advertisements
Track Severe Weather on mobile